Time;durP1;ratioP1;P1;durP2;ratioP2;P2;SDS_P1;SDS_P2;PMS_P1;PMS_P2;Temp;Humidity;BMP_temperature;BMP_pressure;BME280_temperature;BME280_humidity;BME280_pressure;Samples;Min_cycle;Max_cycle;Signal;HPM_P1;HPM_P2
2023/01/25 00:02:12;;;;;;;24.45;15.10;;;4.40;99.90;;;;;;5010751;28;20440;-43
2023/01/25 00:04:37;;;;;;;26.35;15.52;;;4.40;99.90;;;;;;5011080;28;20034;-51
2023/01/25 00:07:03;;;;;;;26.10;15.45;;;4.50;99.90;;;;;;5010082;28;20101;-48
2023/01/25 00:09:29;;;;;;;23.38;13.82;;;4.40;99.90;;;;;;5011139;28;20038;-47
2023/01/25 00:11:56;;;;;;;25.73;14.80;;;4.40;99.90;;;;;;5010962;28;20048;-42
2023/01/25 00:14:22;;;;;;;24.88;14.82;;;4.40;99.90;;;;;;5010588;28;20042;-45
2023/01/25 00:16:48;;;;;;;24.60;15.27;;;4.40;99.90;;;;;;5010818;28;20029;-54
2023/01/25 00:19:14;;;;;;;23.95;14.35;;;4.40;99.90;;;;;;5010886;28;20205;-42
2023/01/25 00:21:40;;;;;;;23.13;15.05;;;4.40;99.90;;;;;;5010742;28;20077;-47
2023/01/25 00:24:06;;;;;;;26.50;15.25;;;4.40;99.90;;;;;;5010911;28;20058;-37
2023/01/25 00:26:33;;;;;;;26.30;16.10;;;4.40;99.90;;;;;;5010717;28;20579;-48
2023/01/25 00:28:59;;;;;;;27.13;15.70;;;4.30;99.90;;;;;;4992947;28;20034;-43
2023/01/25 00:31:56;;;;;;;28.60;15.90;;;4.30;99.90;;;;;;5010556;28;20030;-42
2023/01/25 00:34:25;;;;;;;28.05;15.88;;;4.40;99.90;;;;;;5000631;28;20022;-46
2023/01/25 00:36:54;;;;;;;25.15;15.35;;;4.40;99.90;;;;;;5010605;28;20078;-54
2023/01/25 00:39:20;;;;;;;23.02;14.98;;;4.40;99.90;;;;;;5010801;28;20365;-37
2023/01/25 00:41:45;;;;;;;25.02;15.43;;;4.40;99.90;;;;;;5010590;28;20033;-36
2023/01/25 00:44:11;;;;;;;27.38;15.43;;;4.40;99.90;;;;;;5010594;28;20096;-37
2023/01/25 00:46:36;;;;;;;26.52;14.82;;;4.30;99.90;;;;;;5010073;28;20385;-43
2023/01/25 00:49:02;;;;;;;28.00;15.27;;;4.30;99.90;;;;;;5003694;28;20018;-51
2023/01/25 00:51:28;;;;;;;26.63;15.15;;;4.40;99.90;;;;;;5007267;28;20049;-38
2023/01/25 00:53:54;;;;;;;26.00;16.27;;;4.40;99.90;;;;;;4996478;28;20052;-45
2023/01/25 00:56:19;;;;;;;26.95;16.45;;;4.30;99.90;;;;;;4991047;28;20019;-49
2023/01/25 00:58:45;;;;;;;28.27;15.27;;;4.40;99.90;;;;;;4990693;28;20060;-47
2023/01/25 01:01:11;;;;;;;23.45;14.43;;;4.30;99.90;;;;;;4992595;28;20417;-48
2023/01/25 01:03:37;;;;;;;26.40;14.43;;;4.40;99.90;;;;;;4992299;28;20034;-43
2023/01/25 01:06:09;;;;;;;24.10;13.10;;;4.30;99.90;;;;;;4993215;28;20351;-51
2023/01/25 01:08:38;;;;;;;23.33;14.48;;;4.30;99.90;;;;;;5010309;28;20491;-48
2023/01/25 01:11:05;;;;;;;;;;;4.30;99.90;;;;;;5010924;28;20053;-41
2023/01/25 01:13:31;;;;;;;22.85;13.48;;;4.30;99.90;;;;;;5010220;28;20055;-43
2023/01/25 01:16:03;;;;;;;24.50;14.52;;;4.20;99.90;;;;;;5010360;28;20053;-47
2023/01/25 01:18:44;;;;;;;26.83;15.52;;;4.20;99.90;;;;;;5010744;28;20469;-40
2023/01/25 01:21:11;;;;;;;26.00;14.95;;;4.20;99.90;;;;;;5014084;28;20029;-42
2023/01/25 01:23:37;;;;;;;25.50;15.07;;;4.20;99.90;;;;;;5013851;28;20026;-45
2023/01/25 01:26:05;;;;;;;24.65;15.00;;;4.20;99.90;;;;;;5013787;28;20362;-41
2023/01/25 01:28:32;;;;;;;24.23;14.18;;;4.20;99.90;;;;;;5013598;28;20040;-49
2023/01/25 01:31:02;;;;;;;27.58;15.63;;;4.20;99.90;;;;;;5013498;28;20033;-40
2023/01/25 01:33:28;;;;;;;22.63;14.57;;;4.20;99.90;;;;;;5013590;28;20041;-48
2023/01/25 01:35:54;;;;;;;22.92;13.68;;;4.20;99.90;;;;;;5013627;28;20044;-51
2023/01/25 01:38:19;;;;;;;23.23;14.05;;;4.20;99.90;;;;;;5013453;28;20037;-44
2023/01/25 01:40:46;;;;;;;22.35;14.68;;;4.20;99.90;;;;;;5013344;28;20034;-42
2023/01/25 01:43:22;;;;;;;23.60;14.48;;;4.20;99.90;;;;;;5013409;28;20026;-47
2023/01/25 01:45:48;;;;;;;25.45;13.52;;;4.10;99.90;;;;;;5013292;28;20065;-56
2023/01/25 01:48:41;;;;;;;24.25;13.95;;;4.20;99.90;;;;;;5013581;28;20022;-49
2023/01/25 01:51:39;;;;;;;23.42;13.98;;;4.20;99.90;;;;;;5001343;28;20030;-49
2023/01/25 01:54:24;;;;;;;26.42;15.70;;;4.20;99.90;;;;;;4988324;28;20037;-51
2023/01/25 01:57:02;;;;;;;23.67;15.32;;;4.20;99.90;;;;;;5013236;28;20026;-51
2023/01/25 01:59:33;;;;;;;22.45;13.25;;;4.20;99.90;;;;;;5012769;28;20050;-48
2023/01/25 02:01:59;;;;;;;22.95;14.02;;;4.20;99.90;;;;;;5012922;28;20105;-48
2023/01/25 02:04:25;;;;;;;25.35;14.43;;;4.20;99.90;;;;;;5013090;28;20104;-48
2023/01/25 02:06:53;;;;;;;22.25;13.60;;;4.20;99.90;;;;;;5013047;28;20041;-38
2023/01/25 02:09:22;;;;;;;23.52;15.10;;;4.20;99.90;;;;;;5013063;28;20519;-41
2023/01/25 02:11:51;;;;;;;20.58;12.82;;;4.10;99.90;;;;;;5013062;28;20108;-44
2023/01/25 02:14:18;;;;;;;22.45;13.27;;;4.10;99.90;;;;;;5012741;28;20429;-46
2023/01/25 02:16:44;;;;;;;22.08;14.05;;;4.10;99.90;;;;;;5013001;28;20037;-42
2023/01/25 02:19:18;;;;;;;22.55;14.32;;;4.10;99.90;;;;;;5012921;28;20030;-43
2023/01/25 02:21:46;;;;;;;23.95;14.75;;;4.10;99.90;;;;;;5012673;28;20024;-52
2023/01/25 02:24:24;;;;;;;24.08;14.73;;;4.10;99.90;;;;;;5012756;28;20026;-49
2023/01/25 02:26:50;;;;;;;24.63;15.35;;;4.10;99.90;;;;;;4994996;28;20108;-39
2023/01/25 02:29:18;;;;;;;26.38;15.73;;;4.10;99.90;;;;;;5012744;28;20484;-48
2023/01/25 02:31:45;;;;;;;22.35;13.50;;;4.10;99.90;;;;;;5011422;28;20534;-54
2023/01/25 02:34:11;;;;;;;22.88;13.43;;;4.00;99.90;;;;;;5012580;28;20474;-47
2023/01/25 02:36:37;;;;;;;21.17;13.38;;;3.90;99.90;;;;;;5012465;28;20104;-53
2023/01/25 02:39:07;;;;;;;24.17;14.23;;;3.90;99.90;;;;;;5012514;28;20033;-54
2023/01/25 02:41:37;;;;;;;23.63;14.30;;;3.90;99.90;;;;;;5012574;28;20120;-59
2023/01/25 02:44:11;;;;;;;22.73;13.02;;;3.90;99.90;;;;;;5012307;28;20018;-58
2023/01/25 02:46:39;;;;;;;22.35;13.85;;;3.90;99.90;;;;;;5012435;28;20029;-50
2023/01/25 02:49:07;;;;;;;25.10;15.05;;;3.80;99.90;;;;;;4994521;28;20384;-47
2023/01/25 02:51:35;;;;;;;22.33;13.27;;;3.80;99.90;;;;;;4994893;28;20088;-46
2023/01/25 02:54:03;;;;;;;22.20;13.02;;;3.80;99.90;;;;;;5012156;28;20088;-40
2023/01/25 02:56:29;;;;;;;20.40;12.60;;;3.80;99.90;;;;;;4992428;28;20511;-37
2023/01/25 02:58:54;;;;;;;22.33;13.68;;;3.90;99.90;;;;;;5000382;28;20562;-48
2023/01/25 03:01:20;;;;;;;25.52;14.73;;;3.90;99.90;;;;;;5010926;28;20022;-37
2023/01/25 03:03:46;;;;;;;24.27;14.82;;;3.90;99.90;;;;;;5002823;28;20025;-48
2023/01/25 03:06:12;;;;;;;25.42;14.65;;;3.90;99.90;;;;;;5011618;28;20029;-43
2023/01/25 03:08:37;;;;;;;22.90;13.60;;;4.00;99.90;;;;;;5010312;28;20095;-53
2023/01/25 03:11:05;;;;;;;21.10;13.52;;;4.00;99.90;;;;;;5011535;28;20022;-38
2023/01/25 03:13:31;;;;;;;23.92;14.32;;;3.90;99.90;;;;;;5011438;28;20037;-50
2023/01/25 03:16:03;;;;;;;21.10;13.25;;;4.00;99.90;;;;;;5011718;28;20021;-51
2023/01/25 03:18:29;;;;;;;21.85;13.55;;;4.00;99.90;;;;;;5011762;28;20030;-37
2023/01/25 03:20:54;;;;;;;19.60;11.82;;;4.00;99.90;;;;;;5011741;28;20032;-36
2023/01/25 03:23:21;;;;;;;25.13;13.52;;;4.00;99.90;;;;;;5011701;28;20144;-37
2023/01/25 03:25:46;;;;;;;21.52;13.43;;;4.00;99.90;;;;;;5011700;28;20026;-38
2023/01/25 03:28:12;;;;;;;20.42;12.82;;;4.00;99.90;;;;;;5011383;28;20022;-37
2023/01/25 03:30:38;;;;;;;22.45;13.70;;;4.00;99.90;;;;;;5011214;28;20041;-37
2023/01/25 03:33:04;;;;;;;23.77;14.80;;;3.90;99.90;;;;;;5011329;28;20045;-40
2023/01/25 03:35:29;;;;;;;22.35;13.27;;;3.90;99.90;;;;;;5011261;28;20447;-37
2023/01/25 03:37:55;;;;;;;23.83;13.75;;;3.90;99.90;;;;;;5011298;28;20087;-37
2023/01/25 03:40:21;;;;;;;27.98;16.42;;;3.90;99.90;;;;;;5011260;28;20022;-43
2023/01/25 03:42:46;;;;;;;26.45;15.10;;;3.80;99.90;;;;;;5010592;28;20052;-47
2023/01/25 03:45:13;;;;;;;24.90;14.65;;;3.80;99.90;;;;;;5011072;28;20030;-46
2023/01/25 03:47:39;;;;;;;22.80;13.48;;;3.70;99.90;;;;;;5010950;28;20026;-39
2023/01/25 03:50:06;;;;;;;24.77;14.68;;;3.70;99.90;;;;;;5011298;28;20030;-40
2023/01/25 03:52:37;;;;;;;21.65;13.68;;;3.80;99.90;;;;;;5011057;28;20026;-45
2023/01/25 03:55:04;;;;;;;25.58;15.60;;;3.80;99.90;;;;;;4993384;28;20044;-44
2023/01/25 03:57:30;;;;;;;22.50;12.95;;;3.80;99.90;;;;;;4992612;28;20117;-43
2023/01/25 03:59:55;;;;;;;24.92;15.25;;;3.80;99.90;;;;;;5010670;28;20137;-37
2023/01/25 04:02:21;;;;;;;22.75;13.55;;;3.80;99.90;;;;;;5010908;28;20054;-37
2023/01/25 04:04:46;;;;;;;25.60;15.18;;;3.70;99.90;;;;;;5010531;28;20029;-37
2023/01/25 04:07:12;;;;;;;23.67;13.32;;;3.70;99.90;;;;;;5010808;28;20065;-40
2023/01/25 04:09:38;;;;;;;21.80;12.90;;;3.60;99.90;;;;;;5011148;28;20033;-45
2023/01/25 04:12:03;;;;;;;26.88;16.02;;;3.60;99.90;;;;;;5010859;28;20018;-38
2023/01/25 04:14:29;;;;;;;27.20;16.20;;;3.60;99.90;;;;;;5010753;28;20413;-45
2023/01/25 04:16:54;;;;;;;25.35;14.88;;;3.60;99.90;;;;;;5010545;28;20029;-43
2023/01/25 04:19:20;;;;;;;23.63;13.80;;;3.70;99.90;;;;;;5010901;28;20045;-40
2023/01/25 04:21:46;;;;;;;27.00;15.90;;;3.70;99.90;;;;;;5010944;28;20102;-44
2023/01/25 04:24:11;;;;;;;27.23;16.05;;;3.70;99.90;;;;;;5011041;28;20097;-43
2023/01/25 04:26:37;;;;;;;27.67;16.42;;;3.70;99.90;;;;;;4993305;28;20034;-47
2023/01/25 04:29:03;;;;;;;24.77;15.05;;;3.70;99.90;;;;;;5010457;28;20436;-54
2023/01/25 04:31:28;;;;;;;29.50;16.65;;;3.60;99.90;;;;;;5010672;28;20436;-51
2023/01/25 04:33:54;;;;;;;27.23;15.55;;;3.50;99.90;;;;;;5010753;28;20060;-43
2023/01/25 04:36:20;;;;;;;28.05;16.15;;;3.50;99.90;;;;;;5009469;28;20022;-36
2023/01/25 04:38:46;;;;;;;28.45;16.00;;;3.50;99.90;;;;;;5010171;28;20081;-40
2023/01/25 04:41:11;;;;;;;28.60;17.05;;;3.50;99.90;;;;;;5010766;28;20026;-40
2023/01/25 04:43:37;;;;;;;26.88;15.95;;;3.60;99.90;;;;;;5009676;28;20405;-42
2023/01/25 04:46:03;;;;;;;27.42;16.33;;;3.60;99.90;;;;;;5010491;28;20038;-43
2023/01/25 04:48:29;;;;;;;25.23;14.57;;;3.60;99.90;;;;;;5010408;28;20026;-41
2023/01/25 04:50:54;;;;;;;27.77;14.77;;;3.60;99.90;;;;;;5010964;28;20419;-39
2023/01/25 04:53:20;;;;;;;26.85;15.30;;;3.60;99.90;;;;;;5010895;28;20535;-44
2023/01/25 04:55:46;;;;;;;23.77;14.10;;;3.60;99.90;;;;;;5013569;28;20041;-40
2023/01/25 04:58:12;;;;;;;27.67;15.07;;;3.60;99.90;;;;;;5012945;28;20200;-47
2023/01/25 05:00:38;;;;;;;28.80;16.67;;;3.60;99.90;;;;;;5013883;28;20126;-49
2023/01/25 05:03:03;;;;;;;30.30;15.93;;;3.70;99.90;;;;;;5014571;28;20030;-44
2023/01/25 05:05:29;;;;;;;30.17;17.50;;;3.60;99.90;;;;;;5014001;28;20029;-46
2023/01/25 05:07:55;;;;;;;28.15;16.45;;;3.60;99.90;;;;;;5014275;28;20029;-44
2023/01/25 05:10:21;;;;;;;33.13;18.40;;;3.60;99.90;;;;;;5014066;28;20014;-43
2023/01/25 05:12:47;;;;;;;30.65;17.42;;;3.60;99.90;;;;;;5013893;28;20033;-51
2023/01/25 05:15:13;;;;;;;32.45;17.90;;;3.60;99.90;;;;;;5013860;28;20125;-43
2023/01/25 05:17:38;;;;;;;28.25;16.10;;;3.60;99.90;;;;;;5014081;28;20026;-45
2023/01/25 05:20:05;;;;;;;29.83;16.35;;;3.60;99.90;;;;;;5014015;28;20050;-38
2023/01/25 05:22:30;;;;;;;30.77;17.15;;;3.60;99.90;;;;;;5013768;28;20034;-41
2023/01/25 05:24:57;;;;;;;29.67;16.88;;;3.60;99.90;;;;;;5013996;28;20093;-49
2023/01/25 05:27:23;;;;;;;29.75;16.23;;;3.60;99.90;;;;;;5013836;28;20527;-43
2023/01/25 05:29:49;;;;;;;29.15;15.80;;;3.60;99.90;;;;;;5013500;28;20030;-44
2023/01/25 05:32:20;;;;;;;30.02;16.88;;;3.60;99.90;;;;;;5013697;28;20392;-41
2023/01/25 05:34:45;;;;;;;29.35;16.27;;;3.60;99.90;;;;;;5013592;28;20068;-50
2023/01/25 05:37:17;;;;;;;27.70;15.50;;;3.60;99.90;;;;;;5013338;28;20026;-40
2023/01/25 05:39:42;;;;;;;30.33;17.17;;;3.60;99.90;;;;;;5013579;28;20038;-45
2023/01/25 05:42:11;;;;;;;27.77;16.42;;;3.60;99.90;;;;;;4996112;28;20056;-40
2023/01/25 05:44:37;;;;;;;28.83;16.40;;;3.60;99.90;;;;;;5013081;28;20034;-51
2023/01/25 05:47:03;;;;;;;28.45;15.68;;;3.50;99.90;;;;;;5013788;28;20075;-56
2023/01/25 05:49:29;;;;;;;31.30;17.80;;;3.50;99.90;;;;;;5013210;28;20385;-37
2023/01/25 05:51:55;;;;;;;32.13;18.10;;;3.50;99.90;;;;;;5010341;28;20022;-50
2023/01/25 05:54:20;;;;;;;34.38;17.70;;;3.40;99.90;;;;;;5012231;28;20037;-47
2023/01/25 05:56:49;;;;;;;32.50;17.58;;;3.50;99.90;;;;;;5012435;28;20018;-56
2023/01/25 05:59:14;;;;;;;31.60;17.38;;;3.50;99.90;;;;;;5012749;28;20061;-43
2023/01/25 06:01:40;;;;;;;28.67;16.45;;;3.40;99.90;;;;;;5011570;28;20022;-52
2023/01/25 06:04:06;;;;;;;27.98;15.50;;;3.40;99.90;;;;;;5013125;28;20033;-47
2023/01/25 06:06:31;;;;;;;26.77;15.70;;;3.40;99.90;;;;;;5011920;28;20034;-45
2023/01/25 06:08:57;;;;;;;25.88;15.07;;;3.40;99.90;;;;;;5011866;28;20033;-48
2023/01/25 06:11:23;;;;;;;25.95;15.07;;;3.40;99.90;;;;;;5011010;28;20406;-41
2023/01/25 06:13:50;;;;;;;25.90;14.80;;;3.40;99.90;;;;;;5010919;28;20084;-42
2023/01/25 06:16:17;;;;;;;23.73;13.98;;;3.40;99.90;;;;;;5011119;28;20022;-45
2023/01/25 06:18:43;;;;;;;26.10;13.88;;;3.30;99.90;;;;;;5010733;28;20530;-42
2023/01/25 06:21:09;;;;;;;25.13;13.98;;;3.30;99.90;;;;;;5010872;28;20056;-44
2023/01/25 06:23:35;;;;;;;24.88;14.45;;;3.30;99.90;;;;;;5011673;28;20034;-52
2023/01/25 06:26:04;;;;;;;25.48;15.25;;;3.30;99.90;;;;;;5012832;28;20022;-44
2023/01/25 06:28:31;;;;;;;30.25;16.10;;;3.30;99.90;;;;;;5013995;28;20037;-46
2023/01/25 06:31:13;;;;;;;26.27;15.60;;;3.30;99.90;;;;;;5024881;28;20049;-37
2023/01/25 06:33:40;;;;;;;34.15;18.23;;;3.30;99.90;;;;;;5012152;28;20067;-37
2023/01/25 06:36:11;;;;;;;32.50;17.33;;;3.30;99.90;;;;;;5012572;28;20041;-54
2023/01/25 06:38:37;;;;;;;32.22;16.88;;;3.30;99.90;;;;;;5012313;28;20034;-51
2023/01/25 06:41:06;;;;;;;29.42;16.60;;;3.20;99.90;;;;;;5012442;28;20033;-46
2023/01/25 06:43:33;;;;;;;33.15;18.00;;;3.20;99.90;;;;;;5012214;28;20072;-46
2023/01/25 06:46:04;;;;;;;30.73;16.88;;;3.10;99.90;;;;;;5012180;28;20030;-44
2023/01/25 06:48:31;;;;;;;34.65;18.13;;;3.00;99.90;;;;;;5012348;28;20358;-48
2023/01/25 06:50:59;;;;;;;31.63;16.77;;;3.00;99.90;;;;;;5012116;28;20033;-50
2023/01/25 06:53:29;;;;;;;32.03;17.67;;;3.00;99.90;;;;;;5012240;28;20034;-46
2023/01/25 06:56:10;;;;;;;28.33;16.05;;;3.00;99.90;;;;;;5012142;28;20021;-45
2023/01/25 06:58:36;;;;;;;30.42;16.27;;;3.00;99.90;;;;;;5000455;28;20072;-58
2023/01/25 07:01:25;;;;;;;33.42;17.35;;;3.00;99.90;;;;;;5010967;28;20022;-58
2023/01/25 07:03:53;;;;;;;29.27;16.35;;;2.90;99.90;;;;;;4993398;28;20466;-58
2023/01/25 07:06:19;;;;;;;32.17;16.08;;;2.90;99.90;;;;;;5011582;28;20018;-55
2023/01/25 07:08:45;;;;;;;29.48;17.13;;;2.90;99.90;;;;;;5012067;28;20111;-45
2023/01/25 07:11:12;;;;;;;31.65;17.05;;;2.90;99.90;;;;;;5011991;28;20021;-50
2023/01/25 07:13:39;;;;;;;30.80;16.30;;;3.00;99.90;;;;;;5011333;28;20065;-41
2023/01/25 07:16:07;;;;;;;33.53;18.00;;;2.90;99.90;;;;;;5011484;28;20030;-42
2023/01/25 07:18:36;;;;;;;29.63;15.80;;;3.00;99.90;;;;;;5011325;28;20351;-40
2023/01/25 07:21:04;;;;;;;27.58;15.45;;;3.00;99.90;;;;;;5012086;28;20116;-49
2023/01/25 07:23:31;;;;;;;29.85;15.35;;;3.00;99.90;;;;;;5011543;28;20382;-53
2023/01/25 07:25:57;;;;;;;28.38;16.02;;;2.90;99.90;;;;;;5011623;28;20048;-43
2023/01/25 07:28:22;;;;;;;33.35;16.88;;;2.90;99.90;;;;;;5011216;28;20030;-48
2023/01/25 07:30:48;;;;;;;29.95;15.18;;;2.80;99.90;;;;;;5011414;28;20030;-41
2023/01/25 07:33:14;;;;;;;27.13;15.55;;;2.80;99.90;;;;;;5011350;28;20124;-37
2023/01/25 07:35:40;;;;;;;27.27;14.65;;;2.80;99.90;;;;;;5002234;28;20026;-38
2023/01/25 07:38:05;;;;;;;28.35;15.88;;;2.80;99.90;;;;;;4991835;28;20244;-38
2023/01/25 07:40:31;;;;;;;26.92;14.77;;;2.80;99.90;;;;;;4996431;28;20022;-42
2023/01/25 07:42:57;;;;;;;28.83;14.68;;;2.70;99.90;;;;;;4998068;28;20449;-38
2023/01/25 07:45:29;;;;;;;27.73;15.82;;;2.60;99.90;;;;;;5001770;28;20426;-43
2023/01/25 07:47:58;;;;;;;28.13;16.05;;;2.60;99.90;;;;;;5018436;28;20111;-40
2023/01/25 07:50:28;;;;;;;27.95;15.30;;;2.60;99.90;;;;;;5020166;28;20113;-37
2023/01/25 07:52:53;;;;;;;29.73;17.30;;;2.50;99.90;;;;;;5010864;28;20037;-37
2023/01/25 07:55:21;;;;;;;29.30;16.45;;;2.60;99.90;;;;;;5011087;28;20365;-37
2023/01/25 07:57:47;;;;;;;26.50;14.55;;;2.60;99.90;;;;;;5010824;28;20022;-37
2023/01/25 08:00:13;;;;;;;26.70;15.50;;;2.60;99.90;;;;;;5011102;28;20074;-37
2023/01/25 08:02:39;;;;;;;25.80;15.23;;;2.60;99.90;;;;;;5010645;28;20507;-37
2023/01/25 08:05:05;;;;;;;26.17;15.13;;;2.60;99.90;;;;;;5010995;28;20032;-38
2023/01/25 08:07:31;;;;;;;26.58;15.27;;;2.60;99.90;;;;;;4993165;28;20025;-36
2023/01/25 08:09:56;;;;;;;30.35;15.43;;;2.60;99.90;;;;;;5011333;28;20033;-40
2023/01/25 08:12:22;;;;;;;30.13;16.35;;;2.50;99.90;;;;;;5010740;28;20026;-41
2023/01/25 08:14:49;;;;;;;30.55;16.80;;;2.40;99.90;;;;;;5011058;28;20030;-38
2023/01/25 08:17:15;;;;;;;31.27;16.50;;;2.50;99.90;;;;;;5010733;28;20036;-40
2023/01/25 08:19:40;;;;;;;29.00;16.25;;;2.60;99.90;;;;;;5019209;28;20025;-37
2023/01/25 08:22:07;;;;;;;27.67;16.13;;;2.60;99.90;;;;;;5008220;28;20113;-44
2023/01/25 08:24:33;;;;;;;29.70;16.85;;;2.60;99.90;;;;;;5012034;28;20470;-41
2023/01/25 08:26:58;;;;;;;29.27;16.38;;;2.60;99.90;;;;;;5025063;28;20104;-37
2023/01/25 08:29:26;;;;;;;27.02;15.65;;;2.60;99.90;;;;;;5024540;28;20461;-36
2023/01/25 08:31:52;;;;;;;24.60;13.15;;;2.70;99.90;;;;;;5014560;28;20057;-50
2023/01/25 08:34:18;;;;;;;24.55;13.63;;;2.60;99.90;;;;;;5014514;28;20093;-50
2023/01/25 08:36:43;;;;;;;27.20;12.63;;;2.60;99.90;;;;;;5020800;28;20492;-45
2023/01/25 08:39:10;;;;;;;17.73;10.73;;;2.80;99.90;;;;;;5030898;28;20060;-52
2023/01/25 08:41:36;;;;;;;23.88;12.63;;;2.70;99.90;;;;;;5025294;28;20021;-37
2023/01/25 08:44:01;;;;;;;21.02;11.57;;;2.60;99.90;;;;;;5022568;28;20035;-49
2023/01/25 08:46:29;;;;;;;24.73;13.27;;;2.70;99.90;;;;;;5014446;28;20014;-38
2023/01/25 08:48:56;;;;;;;27.30;13.80;;;2.70;99.90;;;;;;5014675;28;20021;-43
2023/01/25 08:51:22;;;;;;;24.88;13.80;;;2.80;99.90;;;;;;5014398;28;20018;-37
2023/01/25 08:53:48;;;;;;;24.63;13.38;;;2.80;99.90;;;;;;5014344;28;20058;-48
2023/01/25 08:56:15;;;;;;;24.73;13.13;;;2.90;99.90;;;;;;5014122;28;20061;-46
2023/01/25 08:58:46;;;;;;;23.88;13.48;;;2.90;99.90;;;;;;5014363;28;20122;-37
2023/01/25 09:01:14;;;;;;;23.92;13.00;;;2.90;99.90;;;;;;5014192;28;20121;-55
2023/01/25 09:03:42;;;;;;;24.98;13.68;;;2.90;99.90;;;;;;5014236;28;20109;-43
2023/01/25 09:06:09;;;;;;;23.88;13.57;;;3.00;99.90;;;;;;5018308;28;20022;-40
2023/01/25 09:08:36;;;;;;;24.38;13.85;;;3.00;99.90;;;;;;5007880;28;20054;-41
2023/01/25 09:11:04;;;;;;;23.70;13.30;;;3.00;99.90;;;;;;5010726;28;20029;-43
2023/01/25 09:13:30;;;;;;;25.80;14.02;;;3.10;99.90;;;;;;5015136;28;20061;-41
2023/01/25 09:16:05;;;;;;;25.70;13.73;;;3.00;99.90;;;;;;5014023;28;20041;-45
2023/01/25 09:18:32;;;;;;;25.48;13.93;;;3.10;99.90;;;;;;5013108;28;20044;-48
2023/01/25 09:20:59;;;;;;;27.30;15.00;;;3.10;99.90;;;;;;5013834;28;20424;-41
2023/01/25 09:23:25;;;;;;;24.75;14.27;;;3.20;99.90;;;;;;5013550;28;20355;-45
2023/01/25 09:25:58;;;;;;;29.77;16.20;;;3.20;99.90;;;;;;5013104;28;20430;-37
2023/01/25 09:28:25;;;;;;;27.23;15.63;;;3.10;99.90;;;;;;5011820;28;20022;-53
2023/01/25 09:31:02;;;;;;;25.48;14.68;;;3.10;99.90;;;;;;5012478;28;20393;-44
2023/01/25 09:33:33;;;;;;;29.38;15.18;;;3.00;99.90;;;;;;5011113;28;20050;-39
2023/01/25 09:36:00;;;;;;;30.15;16.15;;;3.10;99.90;;;;;;5011656;28;20030;-49
2023/01/25 09:38:26;;;;;;;28.08;15.45;;;3.30;99.90;;;;;;5011427;28;20388;-48
2023/01/25 09:41:03;;;;;;;29.40;16.27;;;3.30;99.90;;;;;;5011370;28;20094;-52
2023/01/25 09:43:59;;;;;;;29.77;16.00;;;3.40;99.90;;;;;;5011495;28;20108;-47
2023/01/25 09:46:43;;;;;;;30.98;16.88;;;3.40;99.90;;;;;;5012837;28;20018;-44
2023/01/25 09:49:27;;;;;;;33.75;18.15;;;3.40;99.90;;;;;;5013548;28;20034;-51
2023/01/25 09:52:15;;;;;;;32.72;17.52;;;3.40;99.90;;;;;;5001897;28;20034;-45
2023/01/25 09:54:44;;;;;;;32.75;17.75;;;3.30;99.90;;;;;;5015369;28;20096;-56
2023/01/25 09:57:25;;;;;;;34.25;18.30;;;3.30;99.90;;;;;;5023491;28;20037;-46
2023/01/25 09:59:53;;;;;;;31.83;17.58;;;3.20;99.90;;;;;;5019605;28;20049;-37
2023/01/25 10:02:33;;;;;;;35.38;17.63;;;3.20;99.90;;;;;;5021715;28;20026;-42
2023/01/25 10:05:09;;;;;;;35.13;17.83;;;3.10;99.90;;;;;;5013122;28;20041;-46
2023/01/25 10:07:59;;;;;;;33.03;18.08;;;3.10;99.90;;;;;;5021356;28;20032;-41
2023/01/25 10:10:42;;;;;;;38.15;18.48;;;3.20;99.90;;;;;;5029286;28;20701;-40
2023/01/25 10:13:15;;;;;;;33.35;17.85;;;3.20;99.90;;;;;;5024063;28;20034;-49
2023/01/25 10:15:51;;;;;;;35.92;18.33;;;3.30;99.90;;;;;;5028684;28;20570;-46
2023/01/25 10:18:19;;;;;;;32.05;16.63;;;3.30;99.90;;;;;;5024666;28;20009;-42
2023/01/25 10:21:03;;;;;;;31.75;16.00;;;3.30;99.90;;;;;;5020556;28;20507;-45
2023/01/25 10:23:40;;;;;;;32.83;17.38;;;3.30;99.90;;;;;;5012623;28;20033;-40
2023/01/25 10:26:13;;;;;;;30.50;15.65;;;3.30;99.90;;;;;;5012646;28;20495;-48
2023/01/25 10:29:01;;;;;;;30.42;15.85;;;3.20;99.90;;;;;;5012410;28;20420;-47
2023/01/25 10:31:49;;;;;;;31.30;16.00;;;3.20;99.90;;;;;;5012595;28;20076;-45
2023/01/25 10:34:35;;;;;;;33.42;16.13;;;3.20;99.90;;;;;;5006866;28;20034;-47
2023/01/25 10:37:08;;;;;;;28.70;14.85;;;3.30;99.90;;;;;;5007725;28;20026;-47
2023/01/25 10:39:41;;;;;;;36.47;17.20;;;3.20;99.90;;;;;;5012388;28;20021;-45
2023/01/25 10:42:11;;;;;;;30.20;15.40;;;3.10;99.90;;;;;;5012311;28;20030;-41
2023/01/25 10:44:37;;;;;;;33.03;18.30;;;3.10;99.90;;;;;;4997672;28;20121;-36
2023/01/25 10:47:26;;;;;;;55.20;27.42;;;3.10;99.90;;;;;;5002967;28;20053;-50
2023/01/25 10:49:56;;;;;;;;;;;3.00;99.90;;;;;;5012606;28;20026;-46
2023/01/25 10:52:24;;;;;;;69.68;32.08;;;3.00;99.90;;;;;;5011800;28;19905;-41
2023/01/25 10:55:25;;;;;;;63.43;27.07;;;2.90;99.90;;;;;;5023921;28;20054;-38
2023/01/25 10:57:53;;;;;;;55.05;26.88;;;3.00;99.90;;;;;;5025436;28;20542;-48
2023/01/25 11:00:26;;;;;;;51.25;23.40;;;3.00;99.90;;;;;;5012273;28;20049;-49
2023/01/25 11:02:52;;;;;;;46.83;21.95;;;3.00;99.90;;;;;;5011491;28;20477;-41
2023/01/25 11:05:18;;;;;;;48.50;23.15;;;3.00;99.90;;;;;;5011600;28;20054;-43
2023/01/25 11:07:47;;;;;;;50.28;23.85;;;3.00;99.90;;;;;;5012073;28;20088;-39
2023/01/25 11:10:33;;;;;;;44.83;20.77;;;3.10;99.90;;;;;;5011857;28;20053;-39
2023/01/25 11:13:20;;;;;;;40.13;19.30;;;3.10;99.90;;;;;;5012987;28;20488;-51
2023/01/25 11:15:49;;;;;;;40.15;19.77;;;3.00;99.90;;;;;;5016699;28;20046;-47
2023/01/25 11:18:15;;;;;;;;;;;3.00;99.90;;;;;;5012336;28;20024;-43
2023/01/25 11:20:40;;;;;;;33.97;17.10;;;3.00;99.90;;;;;;5011542;28;19909;-47
2023/01/25 11:23:24;;;;;;;38.42;16.98;;;3.00;99.90;;;;;;5011819;28;20022;-44
2023/01/25 11:25:51;;;;;;;34.95;17.30;;;3.10;99.90;;;;;;5011625;28;20528;-38
2023/01/25 11:28:22;;;;;;;38.72;19.20;;;3.00;99.90;;;;;;5011653;28;20050;-36
2023/01/25 11:30:49;;;;;;;40.88;19.70;;;3.10;99.90;;;;;;5008287;28;20079;-36
2023/01/25 11:33:17;;;;;;;42.78;19.40;;;3.00;99.90;;;;;;5016600;28;20069;-36
2023/01/25 11:36:04;;;;;;;40.08;19.83;;;3.00;99.90;;;;;;5002066;28;20038;-39
2023/01/25 11:38:31;;;;;;;50.38;21.40;;;3.00;99.90;;;;;;4991882;28;20569;-51
2023/01/25 11:41:10;;;;;;;43.25;20.15;;;2.90;99.90;;;;;;4991892;28;20037;-49
2023/01/25 11:43:59;;;;;;;45.53;21.92;;;2.80;99.90;;;;;;4992121;28;20030;-57
2023/01/25 11:46:36;;;;;;;47.60;22.05;;;2.80;99.90;;;;;;5010684;28;20037;-54
2023/01/25 11:49:08;;;;;;;40.53;19.10;;;2.90;99.90;;;;;;5011312;28;20026;-49
2023/01/25 11:52:14;;;;;;;41.00;18.80;;;2.80;99.90;;;;;;5011275;28;20033;-48
2023/01/25 11:55:15;;;;;;;42.20;18.23;;;2.90;99.90;;;;;;4986715;28;20073;-50
2023/01/25 11:57:58;;;;;;;36.60;15.82;;;3.00;99.90;;;;;;4991285;28;20400;-51
2023/01/25 12:00:58;;;;;;;38.97;17.50;;;2.90;99.90;;;;;;4987763;28;20066;-49
2023/01/25 12:03:46;;;;;;;37.47;17.52;;;2.90;99.90;;;;;;5003219;28;20026;-52
2023/01/25 12:06:31;;;;;;;38.08;18.73;;;3.00;99.90;;;;;;4991486;28;20453;-41
2023/01/25 12:09:06;;;;;;;40.80;19.15;;;3.00;99.90;;;;;;4991762;28;20034;-40
2023/01/25 12:11:54;;;;;;;49.17;22.48;;;3.00;99.90;;;;;;5020984;28;20036;-55
2023/01/25 12:14:47;;;;;;;45.60;21.92;;;2.90;99.90;;;;;;5021439;28;20052;-45
2023/01/25 12:17:19;;;;;;;45.40;21.48;;;2.90;99.90;;;;;;5014943;28;20424;-50
2023/01/25 12:19:59;;;;;;;44.13;21.02;;;2.90;99.90;;;;;;5022951;28;20098;-51
2023/01/25 12:22:28;;;;;;;47.15;21.95;;;2.90;99.90;;;;;;5024999;28;20461;-51
2023/01/25 12:24:58;;;;;;;44.05;20.80;;;2.90;99.90;;;;;;5017959;28;20491;-50
2023/01/25 12:27:39;;;;;;;43.30;21.30;;;2.90;99.90;;;;;;5010794;28;20508;-53
2023/01/25 12:30:20;;;;;;;49.83;22.67;;;3.00;99.90;;;;;;5010806;28;20034;-47
2023/01/25 12:32:56;;;;;;;45.95;21.65;;;2.90;99.90;;;;;;5010468;28;20041;-52
2023/01/25 12:35:45;;;;;;;48.22;22.08;;;3.00;99.90;;;;;;5010682;28;20112;-48
2023/01/25 12:38:42;;;;;;;48.65;22.27;;;3.00;99.90;;;;;;5010600;28;20531;-50
2023/01/25 12:41:18;;;;;;;44.53;21.95;;;3.00;99.90;;;;;;4971011;28;20038;-45
2023/01/25 12:44:05;;;;;;;49.58;22.27;;;3.00;99.90;;;;;;5010377;28;20516;-39
2023/01/25 12:46:41;;;;;;;59.75;25.42;;;3.00;99.90;;;;;;4996871;28;20022;-51
2023/01/25 12:49:17;;;;;;;57.60;26.20;;;3.00;99.90;;;;;;5010711;28;20117;-40
2023/01/25 12:51:44;;;;;;;55.05;25.10;;;3.10;99.90;;;;;;5011000;28;20025;-39
2023/01/25 12:54:21;;;;;;;50.67;23.27;;;3.10;99.90;;;;;;5010572;28;20103;-46